This is the latest recevied weather packets stored in our database for station/object OH2MUI. If no packets are shown the sender has not sent any weather packets the latest 10 day(s).
| Time | Temp. | Humidity | Pressure | Rain* | Wind** | Luminosity | Snow |
|---|---|---|---|---|---|---|---|
| 1777871620 | 6.67° C | 70% | 1006.7 hPa | 0 mm | - | - | - |
| 1777870424 | 6.67° C | 71% | 1006.9 hPa | 0 mm | - | - | - |
| 1777869264 | 6.11° C | 72% | 1006.8 hPa | 0 mm | - | - | - |
| 1777868224 | 6.11° C | 73% | 1007.1 hPa | 0 mm | - | - | - |
| 1777867111 | 5.56° C | 73% | 1007.2 hPa | 0 mm | - | - | - |
| 1777864954 | 5.56° C | 75% | 1007.4 hPa | 0 mm | - | - | - |
| 1777846884 | 10° C | 59% | 1009 hPa | 0 mm | - | - | - |
| 1777845744 | 10° C | 59% | 1009.1 hPa | 0 mm | - | - | - |
| 1777844659 | 10° C | 61% | 1009.1 hPa | 0 mm | - | - | - |
| 1777839344 | 11.67° C | 62% | 1009.1 hPa | 0 mm | - | - | - |
| 1777838249 | 11.67° C | 63% | 1009.2 hPa | 0 mm | - | - | - |
| 1777835064 | 12.78° C | 64% | 1009.1 hPa | 0 mm | - | - | - |
| 1777832774 | 13.33° C | 68% | 1008.8 hPa | 0 mm | - | - | - |
| 1777831629 | 13.89° C | 69% | 1008.8 hPa | 0 mm | - | - | - |
| 1777828684 | 14.44° C | 64% | 1008.6 hPa | 0 mm | - | - | - |
| 1777825319 | 15° C | 64% | 1008.7 hPa | 0 mm | - | - | - |
| 1777823249 | 15° C | 62% | 1009 hPa | 0 mm | - | - | - |
| 1777819064 | 15.56° C | 61% | 1009.1 hPa | 0 mm | - | - | - |
| 1777811232 | 11.11° C | 69% | 1008.3 hPa | 0 mm | - | - | - |
| 1777810239 | 11.11° C | 69% | 1008.3 hPa | 0 mm | - | - | - |
| 1777808209 | 11.11° C | 69% | 1008.3 hPa | 0 mm | - | - | - |
| 1777807059 | 11.11° C | 69% | 1008.3 hPa | 0 mm | - | - | - |
| 1777806084 | 11.11° C | 69% | 1008.3 hPa | 0 mm | - | - | - |
| 1777803932 | 11.11° C | 69% | 1008.3 hPa | 0 mm | - | - | - |
| 1777802964 | 11.11° C | 69% | 1008.3 hPa | 0 mm | - | - | - |
* Rain latest hour (hover to see other rain measurements)
** Current wind speed in m/s (hover to see current wind gust speed)